sensor_id;sensor_type;location;lat;lon;timestamp;P1;durP1;ratioP1;P2;durP2;ratioP2
14516;SDS011;7344;50.864;4.362;2022-09-09T00:00:40;2.53;;;1.30;;
14516;SDS011;7344;50.864;4.362;2022-09-09T00:03:34;3.83;;;1.50;;
14516;SDS011;7344;50.864;4.362;2022-09-09T00:06:30;2.70;;;1.40;;
14516;SDS011;7344;50.864;4.362;2022-09-09T00:09:00;1.80;;;1.33;;
14516;SDS011;7344;50.864;4.362;2022-09-09T00:14:12;4.47;;;1.50;;
14516;SDS011;7344;50.864;4.362;2022-09-09T00:16:44;2.77;;;1.60;;
14516;SDS011;7344;50.864;4.362;2022-09-09T00:19:24;2.40;;;1.47;;
14516;SDS011;7344;50.864;4.362;2022-09-09T00:24:50;4.40;;;1.70;;
14516;SDS011;7344;50.864;4.362;2022-09-09T00:27:38;4.10;;;1.50;;
14516;SDS011;7344;50.864;4.362;2022-09-09T00:32:47;2.13;;;1.67;;
14516;SDS011;7344;50.864;4.362;2022-09-09T00:35:22;1.90;;;1.60;;
14516;SDS011;7344;50.864;4.362;2022-09-09T00:37:52;3.77;;;1.67;;
14516;SDS011;7344;50.864;4.362;2022-09-09T00:43:10;4.90;;;1.67;;
14516;SDS011;7344;50.864;4.362;2022-09-09T00:49:04;3.00;;;1.67;;
14516;SDS011;7344;50.864;4.362;2022-09-09T00:59:58;3.43;;;1.57;;
14516;SDS011;7344;50.864;4.362;2022-09-09T01:05:50;6.33;;;1.70;;
14516;SDS011;7344;50.864;4.362;2022-09-09T01:11:25;3.63;;;1.40;;
14516;SDS011;7344;50.864;4.362;2022-09-09T01:14:19;4.23;;;1.20;;
14516;SDS011;7344;50.864;4.362;2022-09-09T01:16:50;2.53;;;1.20;;
14516;SDS011;7344;50.864;4.362;2022-09-09T01:19:27;4.70;;;1.43;;
14516;SDS011;7344;50.864;4.362;2022-09-09T01:27:34;3.60;;;1.47;;
14516;SDS011;7344;50.864;4.362;2022-09-09T01:30:00;4.43;;;1.60;;
14516;SDS011;7344;50.864;4.362;2022-09-09T01:38:03;3.37;;;1.50;;
14516;SDS011;7344;50.864;4.362;2022-09-09T01:40:29;6.40;;;1.97;;
14516;SDS011;7344;50.864;4.362;2022-09-09T01:42:54;5.27;;;1.60;;
14516;SDS011;7344;50.864;4.362;2022-09-09T01:45:21;5.17;;;1.90;;
14516;SDS011;7344;50.864;4.362;2022-09-09T01:47:48;3.90;;;1.40;;
14516;SDS011;7344;50.864;4.362;2022-09-09T01:50:15;5.17;;;1.87;;
14516;SDS011;7344;50.864;4.362;2022-09-09T01:52:41;5.23;;;2.00;;
14516;SDS011;7344;50.864;4.362;2022-09-09T01:55:08;6.10;;;1.77;;
14516;SDS011;7344;50.864;4.362;2022-09-09T01:57:39;4.37;;;1.80;;
14516;SDS011;7344;50.864;4.362;2022-09-09T02:00:10;6.63;;;2.00;;
14516;SDS011;7344;50.864;4.362;2022-09-09T02:05:37;6.20;;;2.07;;
14516;SDS011;7344;50.864;4.362;2022-09-09T02:10:40;5.20;;;1.90;;
14516;SDS011;7344;50.864;4.362;2022-09-09T02:13:12;4.70;;;2.00;;
14516;SDS011;7344;50.864;4.362;2022-09-09T02:15:43;3.93;;;2.30;;
14516;SDS011;7344;50.864;4.362;2022-09-09T02:21:24;5.43;;;2.00;;
14516;SDS011;7344;50.864;4.362;2022-09-09T02:23:53;4.70;;;2.20;;
14516;SDS011;7344;50.864;4.362;2022-09-09T02:26:22;4.57;;;2.03;;
14516;SDS011;7344;50.864;4.362;2022-09-09T02:28:50;3.53;;;1.70;;
14516;SDS011;7344;50.864;4.362;2022-09-09T02:31:18;6.93;;;2.27;;
14516;SDS011;7344;50.864;4.362;2022-09-09T02:33:47;4.60;;;2.70;;
14516;SDS011;7344;50.864;4.362;2022-09-09T02:36:19;9.40;;;2.50;;
14516;SDS011;7344;50.864;4.362;2022-09-09T02:38:48;9.13;;;2.40;;
14516;SDS011;7344;50.864;4.362;2022-09-09T02:41:19;7.33;;;2.17;;
14516;SDS011;7344;50.864;4.362;2022-09-09T02:43:48;8.57;;;2.43;;
14516;SDS011;7344;50.864;4.362;2022-09-09T02:49:18;6.40;;;2.50;;
14516;SDS011;7344;50.864;4.362;2022-09-09T02:52:02;10.60;;;2.80;;
14516;SDS011;7344;50.864;4.362;2022-09-09T02:54:31;6.93;;;2.23;;
14516;SDS011;7344;50.864;4.362;2022-09-09T02:57:10;8.60;;;2.33;;
14516;SDS011;7344;50.864;4.362;2022-09-09T02:59:45;5.03;;;2.43;;
14516;SDS011;7344;50.864;4.362;2022-09-09T03:02:12;7.77;;;2.27;;
14516;SDS011;7344;50.864;4.362;2022-09-09T03:04:38;4.70;;;2.10;;
14516;SDS011;7344;50.864;4.362;2022-09-09T03:07:06;11.00;;;2.70;;
14516;SDS011;7344;50.864;4.362;2022-09-09T03:09:32;6.47;;;2.37;;
14516;SDS011;7344;50.864;4.362;2022-09-09T03:11:57;7.43;;;2.37;;
14516;SDS011;7344;50.864;4.362;2022-09-09T03:14:24;7.67;;;2.30;;
14516;SDS011;7344;50.864;4.362;2022-09-09T03:16:53;5.67;;;2.23;;
14516;SDS011;7344;50.864;4.362;2022-09-09T03:19:19;6.53;;;2.37;;
14516;SDS011;7344;50.864;4.362;2022-09-09T03:21:45;7.60;;;2.87;;
14516;SDS011;7344;50.864;4.362;2022-09-09T03:24:12;7.27;;;2.33;;
14516;SDS011;7344;50.864;4.362;2022-09-09T03:26:39;10.20;;;2.40;;
14516;SDS011;7344;50.864;4.362;2022-09-09T03:29:06;7.07;;;2.20;;
14516;SDS011;7344;50.864;4.362;2022-09-09T03:31:32;6.10;;;2.00;;
14516;SDS011;7344;50.864;4.362;2022-09-09T03:33:58;8.73;;;2.40;;
14516;SDS011;7344;50.864;4.362;2022-09-09T03:36:25;7.47;;;2.33;;
14516;SDS011;7344;50.864;4.362;2022-09-09T03:38:51;6.57;;;2.50;;
14516;SDS011;7344;50.864;4.362;2022-09-09T03:41:19;9.07;;;2.87;;
14516;SDS011;7344;50.864;4.362;2022-09-09T03:43:48;11.47;;;2.77;;
14516;SDS011;7344;50.864;4.362;2022-09-09T03:46:18;7.37;;;2.60;;
14516;SDS011;7344;50.864;4.362;2022-09-09T03:48:44;6.23;;;2.50;;
14516;SDS011;7344;50.864;4.362;2022-09-09T03:51:10;5.47;;;2.70;;
14516;SDS011;7344;50.864;4.362;2022-09-09T03:53:36;8.40;;;2.23;;
14516;SDS011;7344;50.864;4.362;2022-09-09T03:56:03;11.33;;;2.87;;
14516;SDS011;7344;50.864;4.362;2022-09-09T03:58:31;9.90;;;2.70;;
14516;SDS011;7344;50.864;4.362;2022-09-09T04:00:59;6.33;;;2.30;;
14516;SDS011;7344;50.864;4.362;2022-09-09T04:03:26;12.40;;;2.87;;
14516;SDS011;7344;50.864;4.362;2022-09-09T04:05:53;6.00;;;2.70;;
14516;SDS011;7344;50.864;4.362;2022-09-09T04:08:20;9.23;;;2.43;;
14516;SDS011;7344;50.864;4.362;2022-09-09T04:10:47;8.33;;;2.60;;
14516;SDS011;7344;50.864;4.362;2022-09-09T04:13:15;8.83;;;2.43;;
14516;SDS011;7344;50.864;4.362;2022-09-09T04:15:42;6.40;;;2.47;;
14516;SDS011;7344;50.864;4.362;2022-09-09T04:18:08;9.07;;;2.53;;
14516;SDS011;7344;50.864;4.362;2022-09-09T04:20:34;8.07;;;2.33;;
14516;SDS011;7344;50.864;4.362;2022-09-09T04:23:00;9.57;;;2.60;;
14516;SDS011;7344;50.864;4.362;2022-09-09T04:25:26;8.83;;;2.70;;
14516;SDS011;7344;50.864;4.362;2022-09-09T04:27:55;9.80;;;2.80;;
14516;SDS011;7344;50.864;4.362;2022-09-09T04:30:21;7.07;;;2.63;;
14516;SDS011;7344;50.864;4.362;2022-09-09T04:32:47;9.97;;;3.17;;
14516;SDS011;7344;50.864;4.362;2022-09-09T04:35:13;9.93;;;3.13;;
14516;SDS011;7344;50.864;4.362;2022-09-09T04:37:38;8.03;;;2.33;;
14516;SDS011;7344;50.864;4.362;2022-09-09T04:40:04;4.97;;;2.37;;
14516;SDS011;7344;50.864;4.362;2022-09-09T04:42:34;8.40;;;3.00;;
14516;SDS011;7344;50.864;4.362;2022-09-09T04:45:00;6.90;;;2.83;;
14516;SDS011;7344;50.864;4.362;2022-09-09T04:47:26;10.00;;;3.07;;
14516;SDS011;7344;50.864;4.362;2022-09-09T04:49:52;6.77;;;2.90;;
14516;SDS011;7344;50.864;4.362;2022-09-09T04:52:19;11.17;;;3.07;;
14516;SDS011;7344;50.864;4.362;2022-09-09T04:54:45;10.83;;;2.97;;
14516;SDS011;7344;50.864;4.362;2022-09-09T04:57:11;9.77;;;3.07;;
14516;SDS011;7344;50.864;4.362;2022-09-09T04:59:36;10.57;;;2.97;;
14516;SDS011;7344;50.864;4.362;2022-09-09T05:02:02;9.93;;;3.37;;
14516;SDS011;7344;50.864;4.362;2022-09-09T05:04:28;7.97;;;3.23;;
14516;SDS011;7344;50.864;4.362;2022-09-09T05:06:54;14.63;;;3.33;;
14516;SDS011;7344;50.864;4.362;2022-09-09T05:09:21;14.50;;;3.83;;
14516;SDS011;7344;50.864;4.362;2022-09-09T05:11:46;13.13;;;4.13;;
14516;SDS011;7344;50.864;4.362;2022-09-09T05:14:12;11.43;;;3.50;;
14516;SDS011;7344;50.864;4.362;2022-09-09T05:16:37;21.77;;;4.30;;
14516;SDS011;7344;50.864;4.362;2022-09-09T05:19:03;10.93;;;3.47;;
14516;SDS011;7344;50.864;4.362;2022-09-09T05:21:29;17.33;;;3.77;;
14516;SDS011;7344;50.864;4.362;2022-09-09T05:23:55;13.40;;;3.90;;
14516;SDS011;7344;50.864;4.362;2022-09-09T05:26:21;11.40;;;3.63;;
14516;SDS011;7344;50.864;4.362;2022-09-09T05:28:48;12.07;;;3.10;;
14516;SDS011;7344;50.864;4.362;2022-09-09T05:31:14;8.37;;;3.20;;
14516;SDS011;7344;50.864;4.362;2022-09-09T05:33:42;8.80;;;3.47;;
14516;SDS011;7344;50.864;4.362;2022-09-09T05:36:11;7.43;;;3.37;;
14516;SDS011;7344;50.864;4.362;2022-09-09T05:38:41;7.23;;;3.03;;
14516;SDS011;7344;50.864;4.362;2022-09-09T05:41:08;9.30;;;3.03;;
14516;SDS011;7344;50.864;4.362;2022-09-09T05:43:36;8.13;;;3.10;;
14516;SDS011;7344;50.864;4.362;2022-09-09T05:48:33;10.37;;;3.00;;
14516;SDS011;7344;50.864;4.362;2022-09-09T05:50:59;13.00;;;3.50;;
14516;SDS011;7344;50.864;4.362;2022-09-09T05:53:26;14.37;;;3.70;;
14516;SDS011;7344;50.864;4.362;2022-09-09T05:55:59;10.27;;;3.20;;
14516;SDS011;7344;50.864;4.362;2022-09-09T05:58:32;11.80;;;3.33;;
14516;SDS011;7344;50.864;4.362;2022-09-09T06:01:09;12.50;;;3.20;;
14516;SDS011;7344;50.864;4.362;2022-09-09T06:03:37;17.37;;;3.73;;
14516;SDS011;7344;50.864;4.362;2022-09-09T06:06:05;8.77;;;3.30;;
14516;SDS011;7344;50.864;4.362;2022-09-09T06:08:33;10.80;;;2.80;;
14516;SDS011;7344;50.864;4.362;2022-09-09T06:11:21;13.83;;;3.40;;
14516;SDS011;7344;50.864;4.362;2022-09-09T06:13:48;9.33;;;2.90;;
14516;SDS011;7344;50.864;4.362;2022-09-09T06:16:18;14.23;;;2.80;;
14516;SDS011;7344;50.864;4.362;2022-09-09T06:18:45;13.93;;;3.10;;
14516;SDS011;7344;50.864;4.362;2022-09-09T06:21:15;7.83;;;2.80;;
14516;SDS011;7344;50.864;4.362;2022-09-09T06:23:43;15.65;;;3.30;;
14516;SDS011;7344;50.864;4.362;2022-09-09T06:26:22;11.90;;;4.57;;
14516;SDS011;7344;50.864;4.362;2022-09-09T06:28:51;7.30;;;2.38;;
14516;SDS011;7344;50.864;4.362;2022-09-09T06:31:19;7.82;;;2.65;;
14516;SDS011;7344;50.864;4.362;2022-09-09T06:33:46;8.37;;;2.50;;
14516;SDS011;7344;50.864;4.362;2022-09-09T06:36:18;11.32;;;2.83;;
14516;SDS011;7344;50.864;4.362;2022-09-09T06:38:45;10.00;;;3.10;;
14516;SDS011;7344;50.864;4.362;2022-09-09T06:41:12;8.47;;;2.83;;
14516;SDS011;7344;50.864;4.362;2022-09-09T06:43:39;16.57;;;3.87;;
14516;SDS011;7344;50.864;4.362;2022-09-09T06:46:06;8.93;;;2.40;;
14516;SDS011;7344;50.864;4.362;2022-09-09T06:48:38;14.63;;;3.20;;
14516;SDS011;7344;50.864;4.362;2022-09-09T06:51:10;10.07;;;3.23;;
14516;SDS011;7344;50.864;4.362;2022-09-09T06:53:43;10.67;;;3.37;;
14516;SDS011;7344;50.864;4.362;2022-09-09T06:58:36;7.17;;;2.80;;
14516;SDS011;7344;50.864;4.362;2022-09-09T07:01:09;10.30;;;3.00;;
14516;SDS011;7344;50.864;4.362;2022-09-09T07:03:37;8.23;;;2.97;;
14516;SDS011;7344;50.864;4.362;2022-09-09T07:06:04;8.13;;;2.87;;
14516;SDS011;7344;50.864;4.362;2022-09-09T07:08:30;9.73;;;2.87;;
14516;SDS011;7344;50.864;4.362;2022-09-09T07:11:06;10.63;;;2.63;;
14516;SDS011;7344;50.864;4.362;2022-09-09T07:13:33;8.30;;;2.80;;
14516;SDS011;7344;50.864;4.362;2022-09-09T07:16:12;9.00;;;2.87;;
14516;SDS011;7344;50.864;4.362;2022-09-09T07:18:41;7.83;;;2.50;;
14516;SDS011;7344;50.864;4.362;2022-09-09T07:21:06;8.13;;;2.43;;
14516;SDS011;7344;50.864;4.362;2022-09-09T07:23:34;6.27;;;2.77;;
14516;SDS011;7344;50.864;4.362;2022-09-09T07:26:00;7.63;;;2.47;;
14516;SDS011;7344;50.864;4.362;2022-09-09T07:28:27;7.77;;;2.67;;
14516;SDS011;7344;50.864;4.362;2022-09-09T07:30:59;8.87;;;2.57;;
14516;SDS011;7344;50.864;4.362;2022-09-09T07:33:27;8.73;;;2.60;;
14516;SDS011;7344;50.864;4.362;2022-09-09T07:36:01;7.87;;;2.67;;
14516;SDS011;7344;50.864;4.362;2022-09-09T07:38:37;6.00;;;2.23;;
14516;SDS011;7344;50.864;4.362;2022-09-09T07:41:04;6.00;;;2.37;;
14516;SDS011;7344;50.864;4.362;2022-09-09T07:43:37;7.43;;;2.43;;
14516;SDS011;7344;50.864;4.362;2022-09-09T07:46:04;6.10;;;2.80;;
14516;SDS011;7344;50.864;4.362;2022-09-09T07:48:31;5.40;;;2.50;;
14516;SDS011;7344;50.864;4.362;2022-09-09T07:51:10;8.27;;;2.90;;
14516;SDS011;7344;50.864;4.362;2022-09-09T07:53:43;10.23;;;2.53;;
14516;SDS011;7344;50.864;4.362;2022-09-09T07:56:10;10.33;;;2.93;;
14516;SDS011;7344;50.864;4.362;2022-09-09T07:58:38;7.47;;;2.80;;
14516;SDS011;7344;50.864;4.362;2022-09-09T08:01:18;10.53;;;3.80;;
14516;SDS011;7344;50.864;4.362;2022-09-09T08:03:53;8.93;;;3.10;;
14516;SDS011;7344;50.864;4.362;2022-09-09T08:06:27;10.40;;;2.90;;
14516;SDS011;7344;50.864;4.362;2022-09-09T08:08:54;6.40;;;2.47;;
14516;SDS011;7344;50.864;4.362;2022-09-09T08:11:20;6.37;;;2.90;;
14516;SDS011;7344;50.864;4.362;2022-09-09T08:13:48;10.38;;;2.67;;
14516;SDS011;7344;50.864;4.362;2022-09-09T08:16:15;8.82;;;2.65;;
14516;SDS011;7344;50.864;4.362;2022-09-09T08:18:49;6.00;;;2.40;;
14516;SDS011;7344;50.864;4.362;2022-09-09T08:21:35;5.38;;;2.28;;
14516;SDS011;7344;50.864;4.362;2022-09-09T08:24:02;7.68;;;2.50;;
14516;SDS011;7344;50.864;4.362;2022-09-09T08:26:34;6.63;;;2.33;;
14516;SDS011;7344;50.864;4.362;2022-09-09T08:29:03;5.68;;;2.25;;
14516;SDS011;7344;50.864;4.362;2022-09-09T08:31:31;8.30;;;2.75;;
14516;SDS011;7344;50.864;4.362;2022-09-09T08:34:02;7.47;;;3.03;;
14516;SDS011;7344;50.864;4.362;2022-09-09T08:36:29;7.70;;;3.03;;
14516;SDS011;7344;50.864;4.362;2022-09-09T08:39:01;7.50;;;2.73;;
14516;SDS011;7344;50.864;4.362;2022-09-09T08:47:05;13.23;;;2.90;;
14516;SDS011;7344;50.864;4.362;2022-09-09T08:52:19;7.00;;;2.83;;
14516;SDS011;7344;50.864;4.362;2022-09-09T08:54:46;8.43;;;2.77;;
14516;SDS011;7344;50.864;4.362;2022-09-09T08:57:18;8.27;;;2.60;;
14516;SDS011;7344;50.864;4.362;2022-09-09T08:59:51;7.17;;;2.77;;
14516;SDS011;7344;50.864;4.362;2022-09-09T09:02:21;8.23;;;3.20;;
14516;SDS011;7344;50.864;4.362;2022-09-09T09:05:05;10.83;;;3.20;;
14516;SDS011;7344;50.864;4.362;2022-09-09T09:12:44;8.60;;;3.37;;
14516;SDS011;7344;50.864;4.362;2022-09-09T09:15:20;9.30;;;3.03;;
14516;SDS011;7344;50.864;4.362;2022-09-09T09:17:48;16.63;;;3.70;;
14516;SDS011;7344;50.864;4.362;2022-09-09T09:20:15;8.20;;;2.83;;
14516;SDS011;7344;50.864;4.362;2022-09-09T09:22:45;9.03;;;3.13;;
14516;SDS011;7344;50.864;4.362;2022-09-09T09:25:16;8.30;;;3.10;;
14516;SDS011;7344;50.864;4.362;2022-09-09T09:30:42;7.83;;;2.80;;
14516;SDS011;7344;50.864;4.362;2022-09-09T09:35:49;10.97;;;3.40;;
14516;SDS011;7344;50.864;4.362;2022-09-09T09:38:19;9.07;;;3.30;;
14516;SDS011;7344;50.864;4.362;2022-09-09T09:43:20;7.30;;;2.90;;
14516;SDS011;7344;50.864;4.362;2022-09-09T09:45:49;12.57;;;3.47;;
14516;SDS011;7344;50.864;4.362;2022-09-09T09:48:15;8.50;;;3.10;;
14516;SDS011;7344;50.864;4.362;2022-09-09T09:50:51;9.03;;;3.30;;
14516;SDS011;7344;50.864;4.362;2022-09-09T09:55:55;8.37;;;3.10;;
14516;SDS011;7344;50.864;4.362;2022-09-09T09:58:23;6.90;;;3.00;;
14516;SDS011;7344;50.864;4.362;2022-09-09T10:00:53;9.17;;;2.77;;
14516;SDS011;7344;50.864;4.362;2022-09-09T10:03:24;8.80;;;3.30;;
14516;SDS011;7344;50.864;4.362;2022-09-09T10:05:53;13.33;;;3.70;;
14516;SDS011;7344;50.864;4.362;2022-09-09T10:08:19;7.17;;;2.70;;
14516;SDS011;7344;50.864;4.362;2022-09-09T10:13:24;5.70;;;2.43;;
14516;SDS011;7344;50.864;4.362;2022-09-09T10:18:47;3.83;;;2.90;;
14516;SDS011;7344;50.864;4.362;2022-09-09T10:21:55;6.70;;;2.90;;
14516;SDS011;7344;50.864;4.362;2022-09-09T10:24:48;7.87;;;2.87;;
14516;SDS011;7344;50.864;4.362;2022-09-09T10:30:48;6.00;;;2.60;;
14516;SDS011;7344;50.864;4.362;2022-09-09T10:33:37;4.97;;;2.73;;
14516;SDS011;7344;50.864;4.362;2022-09-09T10:36:20;7.97;;;2.80;;
14516;SDS011;7344;50.864;4.362;2022-09-09T10:38:47;6.65;;;2.45;;
14516;SDS011;7344;50.864;4.362;2022-09-09T10:41:25;6.65;;;2.88;;
14516;SDS011;7344;50.864;4.362;2022-09-09T10:55:13;6.15;;;2.88;;
14516;SDS011;7344;50.864;4.362;2022-09-09T11:02:49;4.43;;;2.47;;
14516;SDS011;7344;50.864;4.362;2022-09-09T11:05:30;5.97;;;2.33;;
14516;SDS011;7344;50.864;4.362;2022-09-09T11:08:10;6.85;;;2.30;;
14516;SDS011;7344;50.864;4.362;2022-09-09T11:10:46;5.97;;;2.85;;
14516;SDS011;7344;50.864;4.362;2022-09-09T11:13:43;10.02;;;3.00;;
14516;SDS011;7344;50.864;4.362;2022-09-09T11:21:50;3.25;;;2.13;;
14516;SDS011;7344;50.864;4.362;2022-09-09T11:24:23;4.75;;;2.15;;
14516;SDS011;7344;50.864;4.362;2022-09-09T11:26:51;6.63;;;2.50;;
14516;SDS011;7344;50.864;4.362;2022-09-09T11:32:26;5.78;;;2.22;;
14516;SDS011;7344;50.864;4.362;2022-09-09T11:38:09;5.95;;;2.15;;
14516;SDS011;7344;50.864;4.362;2022-09-09T11:40:43;5.30;;;2.20;;
14516;SDS011;7344;50.864;4.362;2022-09-09T11:43:10;6.20;;;2.47;;
14516;SDS011;7344;50.864;4.362;2022-09-09T11:45:39;4.38;;;1.90;;
14516;SDS011;7344;50.864;4.362;2022-09-09T11:53:54;6.20;;;3.05;;
14516;SDS011;7344;50.864;4.362;2022-09-09T11:56:30;3.83;;;2.08;;
14516;SDS011;7344;50.864;4.362;2022-09-09T11:58:59;4.82;;;2.20;;
14516;SDS011;7344;50.864;4.362;2022-09-09T12:01:28;6.82;;;2.45;;
14516;SDS011;7344;50.864;4.362;2022-09-09T12:14:43;3.60;;;2.10;;
14516;SDS011;7344;50.864;4.362;2022-09-09T12:17:23;5.38;;;2.28;;
14516;SDS011;7344;50.864;4.362;2022-09-09T12:20:01;5.45;;;1.98;;
14516;SDS011;7344;50.864;4.362;2022-09-09T12:23:05;5.25;;;2.08;;
14516;SDS011;7344;50.864;4.362;2022-09-09T12:28:42;9.82;;;2.70;;
14516;SDS011;7344;50.864;4.362;2022-09-09T12:31:26;6.63;;;2.00;;
14516;SDS011;7344;50.864;4.362;2022-09-09T12:33:53;4.15;;;1.92;;
14516;SDS011;7344;50.864;4.362;2022-09-09T12:36:21;4.72;;;2.17;;
14516;SDS011;7344;50.864;4.362;2022-09-09T12:38:50;4.65;;;1.83;;
14516;SDS011;7344;50.864;4.362;2022-09-09T12:41:21;4.78;;;2.05;;
14516;SDS011;7344;50.864;4.362;2022-09-09T12:43:51;4.47;;;1.80;;
14516;SDS011;7344;50.864;4.362;2022-09-09T12:49:01;3.47;;;1.50;;
14516;SDS011;7344;50.864;4.362;2022-09-09T12:51:28;2.92;;;1.90;;
14516;SDS011;7344;50.864;4.362;2022-09-09T12:53:56;5.15;;;2.10;;
14516;SDS011;7344;50.864;4.362;2022-09-09T12:56:27;3.13;;;1.55;;
14516;SDS011;7344;50.864;4.362;2022-09-09T12:58:57;2.72;;;1.70;;
14516;SDS011;7344;50.864;4.362;2022-09-09T13:01:24;4.00;;;1.77;;
14516;SDS011;7344;50.864;4.362;2022-09-09T13:03:53;6.75;;;1.63;;
14516;SDS011;7344;50.864;4.362;2022-09-09T13:06:22;4.70;;;1.58;;
14516;SDS011;7344;50.864;4.362;2022-09-09T13:08:50;3.10;;;1.63;;
14516;SDS011;7344;50.864;4.362;2022-09-09T13:11:18;3.72;;;1.60;;
14516;SDS011;7344;50.864;4.362;2022-09-09T13:13:54;3.38;;;1.70;;
14516;SDS011;7344;50.864;4.362;2022-09-09T13:18:47;2.60;;;1.88;;
14516;SDS011;7344;50.864;4.362;2022-09-09T13:21:14;4.43;;;1.70;;
14516;SDS011;7344;50.864;4.362;2022-09-09T13:23:40;3.10;;;1.75;;
14516;SDS011;7344;50.864;4.362;2022-09-09T13:26:20;2.70;;;1.50;;
14516;SDS011;7344;50.864;4.362;2022-09-09T13:28:47;3.42;;;1.40;;
14516;SDS011;7344;50.864;4.362;2022-09-09T13:31:20;4.80;;;1.65;;
14516;SDS011;7344;50.864;4.362;2022-09-09T13:33:53;4.05;;;1.70;;
14516;SDS011;7344;50.864;4.362;2022-09-09T13:36:27;3.58;;;1.55;;
14516;SDS011;7344;50.864;4.362;2022-09-09T13:38:56;2.80;;;1.50;;
14516;SDS011;7344;50.864;4.362;2022-09-09T13:41:43;3.22;;;1.05;;
14516;SDS011;7344;50.864;4.362;2022-09-09T13:44:20;2.60;;;1.58;;
14516;SDS011;7344;50.864;4.362;2022-09-09T13:49:29;2.25;;;1.20;;
14516;SDS011;7344;50.864;4.362;2022-09-09T13:52:05;4.82;;;1.73;;
14516;SDS011;7344;50.864;4.362;2022-09-09T13:54:36;2.75;;;1.63;;
14516;SDS011;7344;50.864;4.362;2022-09-09T13:57:02;3.20;;;1.90;;
14516;SDS011;7344;50.864;4.362;2022-09-09T13:59:29;2.83;;;1.67;;
14516;SDS011;7344;50.864;4.362;2022-09-09T14:01:56;3.47;;;1.70;;
14516;SDS011;7344;50.864;4.362;2022-09-09T14:04:22;4.43;;;1.70;;
14516;SDS011;7344;50.864;4.362;2022-09-09T14:06:49;2.13;;;1.52;;
14516;SDS011;7344;50.864;4.362;2022-09-09T14:09:16;4.07;;;1.50;;
14516;SDS011;7344;50.864;4.362;2022-09-09T14:11:43;3.22;;;1.70;;
14516;SDS011;7344;50.864;4.362;2022-09-09T14:14:10;2.35;;;1.27;;
14516;SDS011;7344;50.864;4.362;2022-09-09T14:16:36;1.95;;;1.60;;
14516;SDS011;7344;50.864;4.362;2022-09-09T14:19:02;2.92;;;1.60;;
14516;SDS011;7344;50.864;4.362;2022-09-09T14:21:28;2.47;;;1.70;;
14516;SDS011;7344;50.864;4.362;2022-09-09T14:23:54;2.85;;;1.70;;
14516;SDS011;7344;50.864;4.362;2022-09-09T14:26:23;3.15;;;1.70;;
14516;SDS011;7344;50.864;4.362;2022-09-09T14:28:49;3.40;;;1.80;;
14516;SDS011;7344;50.864;4.362;2022-09-09T14:31:15;2.78;;;1.80;;
14516;SDS011;7344;50.864;4.362;2022-09-09T14:33:42;5.50;;;2.13;;
14516;SDS011;7344;50.864;4.362;2022-09-09T14:36:08;2.83;;;1.67;;
14516;SDS011;7344;50.864;4.362;2022-09-09T14:38:35;3.72;;;2.10;;
14516;SDS011;7344;50.864;4.362;2022-09-09T14:41:09;5.22;;;3.22;;
14516;SDS011;7344;50.864;4.362;2022-09-09T14:43:39;4.22;;;2.05;;
14516;SDS011;7344;50.864;4.362;2022-09-09T14:46:06;4.25;;;1.90;;
14516;SDS011;7344;50.864;4.362;2022-09-09T14:48:33;2.20;;;1.70;;
14516;SDS011;7344;50.864;4.362;2022-09-09T14:51:04;3.50;;;2.05;;
14516;SDS011;7344;50.864;4.362;2022-09-09T14:53:34;3.28;;;1.60;;
14516;SDS011;7344;50.864;4.362;2022-09-09T14:56:03;2.67;;;1.83;;
14516;SDS011;7344;50.864;4.362;2022-09-09T14:58:56;6.93;;;2.30;;
14516;SDS011;7344;50.864;4.362;2022-09-09T15:01:23;5.53;;;1.90;;
14516;SDS011;7344;50.864;4.362;2022-09-09T15:03:59;6.28;;;3.70;;
14516;SDS011;7344;50.864;4.362;2022-09-09T15:06:26;3.53;;;1.85;;
14516;SDS011;7344;50.864;4.362;2022-09-09T15:08:54;6.45;;;1.80;;
14516;SDS011;7344;50.864;4.362;2022-09-09T15:11:23;4.00;;;1.88;;
14516;SDS011;7344;50.864;4.362;2022-09-09T15:13:50;3.92;;;1.73;;
14516;SDS011;7344;50.864;4.362;2022-09-09T15:16:21;2.35;;;1.67;;
14516;SDS011;7344;50.864;4.362;2022-09-09T15:18:50;2.70;;;1.60;;
14516;SDS011;7344;50.864;4.362;2022-09-09T15:21:19;2.88;;;1.77;;
14516;SDS011;7344;50.864;4.362;2022-09-09T15:23:46;4.25;;;1.77;;
14516;SDS011;7344;50.864;4.362;2022-09-09T15:26:13;6.85;;;1.90;;
14516;SDS011;7344;50.864;4.362;2022-09-09T15:28:42;5.18;;;1.80;;
14516;SDS011;7344;50.864;4.362;2022-09-09T15:31:13;3.42;;;1.85;;
14516;SDS011;7344;50.864;4.362;2022-09-09T15:33:47;6.03;;;2.38;;
14516;SDS011;7344;50.864;4.362;2022-09-09T15:36:24;2.45;;;1.42;;
14516;SDS011;7344;50.864;4.362;2022-09-09T15:38:51;3.60;;;1.63;;
14516;SDS011;7344;50.864;4.362;2022-09-09T15:41:18;5.70;;;2.10;;
14516;SDS011;7344;50.864;4.362;2022-09-09T15:43:45;4.75;;;2.13;;
14516;SDS011;7344;50.864;4.362;2022-09-09T15:46:31;4.88;;;1.80;;
14516;SDS011;7344;50.864;4.362;2022-09-09T15:49:06;4.38;;;2.00;;
14516;SDS011;7344;50.864;4.362;2022-09-09T15:51:34;2.08;;;1.80;;
14516;SDS011;7344;50.864;4.362;2022-09-09T15:54:00;2.50;;;2.00;;
14516;SDS011;7344;50.864;4.362;2022-09-09T15:56:26;4.05;;;1.95;;
14516;SDS011;7344;50.864;4.362;2022-09-09T15:58:53;2.85;;;1.60;;
14516;SDS011;7344;50.864;4.362;2022-09-09T16:01:20;4.65;;;1.58;;
14516;SDS011;7344;50.864;4.362;2022-09-09T16:03:45;2.67;;;1.50;;
14516;SDS011;7344;50.864;4.362;2022-09-09T16:06:12;3.83;;;1.70;;
14516;SDS011;7344;50.864;4.362;2022-09-09T16:08:42;3.65;;;1.60;;
14516;SDS011;7344;50.864;4.362;2022-09-09T16:13:39;3.60;;;2.20;;
14516;SDS011;7344;50.864;4.362;2022-09-09T16:16:06;3.88;;;1.83;;
14516;SDS011;7344;50.864;4.362;2022-09-09T16:18:36;2.60;;;1.65;;
14516;SDS011;7344;50.864;4.362;2022-09-09T16:21:03;2.95;;;2.10;;
14516;SDS011;7344;50.864;4.362;2022-09-09T16:23:30;3.65;;;2.20;;
14516;SDS011;7344;50.864;4.362;2022-09-09T16:25:59;5.43;;;2.67;;
14516;SDS011;7344;50.864;4.362;2022-09-09T16:28:26;3.35;;;2.03;;
14516;SDS011;7344;50.864;4.362;2022-09-09T16:30:51;3.33;;;2.10;;
14516;SDS011;7344;50.864;4.362;2022-09-09T16:33:17;2.33;;;2.13;;
14516;SDS011;7344;50.864;4.362;2022-09-09T16:35:43;3.70;;;2.15;;
14516;SDS011;7344;50.864;4.362;2022-09-09T16:38:09;4.40;;;1.83;;
14516;SDS011;7344;50.864;4.362;2022-09-09T16:40:38;3.42;;;1.90;;
14516;SDS011;7344;50.864;4.362;2022-09-09T16:43:06;2.17;;;1.42;;
14516;SDS011;7344;50.864;4.362;2022-09-09T16:45:32;3.70;;;2.03;;
14516;SDS011;7344;50.864;4.362;2022-09-09T16:48:01;2.22;;;2.00;;
14516;SDS011;7344;50.864;4.362;2022-09-09T16:50:26;2.50;;;1.60;;
14516;SDS011;7344;50.864;4.362;2022-09-09T16:52:52;2.05;;;1.70;;
14516;SDS011;7344;50.864;4.362;2022-09-09T16:55:18;2.72;;;2.40;;
14516;SDS011;7344;50.864;4.362;2022-09-09T16:57:47;4.65;;;1.88;;
14516;SDS011;7344;50.864;4.362;2022-09-09T17:00:16;2.53;;;1.70;;
14516;SDS011;7344;50.864;4.362;2022-09-09T17:02:42;2.75;;;1.77;;
14516;SDS011;7344;50.864;4.362;2022-09-09T17:05:09;1.92;;;1.80;;
14516;SDS011;7344;50.864;4.362;2022-09-09T17:07:36;4.93;;;2.17;;
14516;SDS011;7344;50.864;4.362;2022-09-09T17:10:01;4.78;;;2.38;;
14516;SDS011;7344;50.864;4.362;2022-09-09T17:12:27;3.95;;;2.53;;
14516;SDS011;7344;50.864;4.362;2022-09-09T17:14:53;5.07;;;2.40;;
14516;SDS011;7344;50.864;4.362;2022-09-09T17:17:20;3.20;;;2.17;;
14516;SDS011;7344;50.864;4.362;2022-09-09T17:19:46;4.22;;;2.25;;
14516;SDS011;7344;50.864;4.362;2022-09-09T17:22:12;4.38;;;2.30;;
14516;SDS011;7344;50.864;4.362;2022-09-09T17:24:37;5.97;;;3.10;;
14516;SDS011;7344;50.864;4.362;2022-09-09T17:27:03;4.88;;;3.25;;
14516;SDS011;7344;50.864;4.362;2022-09-09T17:29:29;2.40;;;1.92;;
14516;SDS011;7344;50.864;4.362;2022-09-09T17:31:55;5.30;;;2.30;;
14516;SDS011;7344;50.864;4.362;2022-09-09T17:34:21;4.03;;;2.05;;
14516;SDS011;7344;50.864;4.362;2022-09-09T17:36:47;5.82;;;1.80;;
14516;SDS011;7344;50.864;4.362;2022-09-09T17:39:13;8.38;;;2.22;;
14516;SDS011;7344;50.864;4.362;2022-09-09T17:41:39;5.72;;;2.60;;
14516;SDS011;7344;50.864;4.362;2022-09-09T17:44:05;6.77;;;2.00;;